sensor_id;sensor_type;location;lat;lon;timestamp;pressure;altitude;pressure_sealevel;temperature;humidity
34197;BME280;36594;45.192;5.722;2023-03-14T00:02:36;98310.67;;;24.64;36.45
34197;BME280;36594;45.192;5.722;2023-03-14T00:05:24;98319.73;;;24.65;36.46
34197;BME280;36594;45.192;5.722;2023-03-14T00:08:13;98339.50;;;24.64;36.52
34197;BME280;36594;45.192;5.722;2023-03-14T00:11:07;98336.50;;;24.63;36.45
34197;BME280;36594;45.192;5.722;2023-03-14T00:13:56;98316.73;;;24.64;36.48
34197;BME280;36594;45.192;5.722;2023-03-14T00:16:45;98285.70;;;24.53;36.52
34197;BME280;36594;45.192;5.722;2023-03-14T00:19:34;98306.30;;;24.63;36.50
34197;BME280;36594;45.192;5.722;2023-03-14T00:22:22;98295.03;;;24.60;36.48
34197;BME280;36594;45.192;5.722;2023-03-14T00:25:12;98315.08;;;24.63;36.52
34197;BME280;36594;45.192;5.722;2023-03-14T00:28:00;98337.33;;;24.61;36.54
34197;BME280;36594;45.192;5.722;2023-03-14T00:30:48;98330.72;;;24.62;36.56
34197;BME280;36594;45.192;5.722;2023-03-14T00:33:37;98332.37;;;24.61;36.51
34197;BME280;36594;45.192;5.722;2023-03-14T00:36:25;98335.41;;;24.59;36.51
34197;BME280;36594;45.192;5.722;2023-03-14T00:39:14;98332.92;;;24.60;36.56
34197;BME280;36594;45.192;5.722;2023-03-14T00:42:03;98345.82;;;24.62;36.50
34197;BME280;36594;45.192;5.722;2023-03-14T00:44:52;98349.14;;;24.62;36.48
34197;BME280;36594;45.192;5.722;2023-03-14T00:47:40;98341.70;;;24.60;36.55
34197;BME280;36594;45.192;5.722;2023-03-14T00:50:30;98344.73;;;24.61;36.49
34197;BME280;36594;45.192;5.722;2023-03-14T00:53:19;98352.14;;;24.60;36.51
34197;BME280;36594;45.192;5.722;2023-03-14T00:56:10;98357.63;;;24.60;36.54
34197;BME280;36594;45.192;5.722;2023-03-14T00:58:59;98360.13;;;24.59;36.52
34197;BME280;36594;45.192;5.722;2023-03-14T01:01:47;98345.28;;;24.60;36.54
34197;BME280;36594;45.192;5.722;2023-03-14T01:04:35;98358.20;;;24.57;36.53
34197;BME280;36594;45.192;5.722;2023-03-14T01:07:25;98387.59;;;24.62;36.48
34197;BME280;36594;45.192;5.722;2023-03-14T01:10:13;98408.17;;;24.59;36.54
34197;BME280;36594;45.192;5.722;2023-03-14T01:13:02;98405.43;;;24.59;36.52
34197;BME280;36594;45.192;5.722;2023-03-14T01:15:50;98393.33;;;24.58;36.52
34197;BME280;36594;45.192;5.722;2023-03-14T01:18:39;98363.41;;;24.59;36.53
34197;BME280;36594;45.192;5.722;2023-03-14T01:21:32;98340.62;;;24.58;36.59
34197;BME280;36594;45.192;5.722;2023-03-14T01:24:21;98313.70;;;24.58;36.51
34197;BME280;36594;45.192;5.722;2023-03-14T01:27:09;98306.30;;;24.58;36.53
34197;BME280;36594;45.192;5.722;2023-03-14T01:29:58;98318.36;;;24.60;36.48
34197;BME280;36594;45.192;5.722;2023-03-14T01:32:47;98337.59;;;24.60;36.54
34197;BME280;36594;45.192;5.722;2023-03-14T01:35:36;98356.00;;;24.59;36.52
34197;BME280;36594;45.192;5.722;2023-03-14T01:38:25;98362.05;;;24.59;36.49
34197;BME280;36594;45.192;5.722;2023-03-14T01:41:20;98354.09;;;24.57;36.49
34197;BME280;36594;45.192;5.722;2023-03-14T01:44:11;98358.75;;;24.57;36.49
34197;BME280;36594;45.192;5.722;2023-03-14T01:47:00;98352.43;;;24.56;36.55
34197;BME280;36594;45.192;5.722;2023-03-14T01:49:54;98362.03;;;24.56;36.52
34197;BME280;36594;45.192;5.722;2023-03-14T01:52:43;98383.47;;;24.59;36.52
34197;BME280;36594;45.192;5.722;2023-03-14T01:55:32;98394.98;;;24.56;36.51
34197;BME280;36594;45.192;5.722;2023-03-14T01:58:20;98391.16;;;24.57;36.53
34197;BME280;36594;45.192;5.722;2023-03-14T02:01:10;98394.98;;;24.56;36.51
34197;BME280;36594;45.192;5.722;2023-03-14T02:04:01;98394.16;;;24.56;36.58
34197;BME280;36594;45.192;5.722;2023-03-14T02:06:57;98397.19;;;24.57;36.60
34197;BME280;36594;45.192;5.722;2023-03-14T02:09:46;98391.41;;;24.56;36.61
34197;BME280;36594;45.192;5.722;2023-03-14T02:12:38;98383.17;;;24.56;36.56
34197;BME280;36594;45.192;5.722;2023-03-14T02:15:31;98355.45;;;24.52;36.57
34197;BME280;36594;45.192;5.722;2023-03-14T02:18:22;98332.13;;;24.55;36.54
34197;BME280;36594;45.192;5.722;2023-03-14T02:21:34;98322.77;;;24.56;36.58
34197;BME280;36594;45.192;5.722;2023-03-14T02:27:31;98326.63;;;24.55;36.55
34197;BME280;36594;45.192;5.722;2023-03-14T02:30:22;98320.30;;;24.47;36.68
34197;BME280;36594;45.192;5.722;2023-03-14T02:33:14;98293.40;;;24.51;36.62
34197;BME280;36594;45.192;5.722;2023-03-14T02:36:07;98284.08;;;24.52;36.61
34197;BME280;36594;45.192;5.722;2023-03-14T02:39:07;98287.36;;;24.54;36.65
34197;BME280;36594;45.192;5.722;2023-03-14T02:41:58;98287.63;;;24.53;36.62
34197;BME280;36594;45.192;5.722;2023-03-14T02:44:53;98283.50;;;24.53;36.62
34197;BME280;36594;45.192;5.722;2023-03-14T02:47:54;98278.84;;;24.53;36.60
34197;BME280;36594;45.192;5.722;2023-03-14T02:50:45;98270.35;;;24.55;36.55
34197;BME280;36594;45.192;5.722;2023-03-14T02:53:35;98266.23;;;24.55;36.60
34197;BME280;36594;45.192;5.722;2023-03-14T02:56:26;98251.13;;;24.55;36.61
34197;BME280;36594;45.192;5.722;2023-03-14T02:59:16;98257.42;;;24.55;36.58
34197;BME280;36594;45.192;5.722;2023-03-14T03:02:05;98247.27;;;24.53;36.54
34197;BME280;36594;45.192;5.722;2023-03-14T03:04:54;98252.77;;;24.53;36.62
34197;BME280;36594;45.192;5.722;2023-03-14T03:07:42;98250.30;;;24.54;36.57
34197;BME280;36594;45.192;5.722;2023-03-14T03:10:31;98253.05;;;24.54;36.62
34197;BME280;36594;45.192;5.722;2023-03-14T03:13:21;98244.81;;;24.52;36.65
34197;BME280;36594;45.192;5.722;2023-03-14T03:16:10;98248.64;;;24.56;36.67
34197;BME280;36594;45.192;5.722;2023-03-14T03:19:00;98233.55;;;24.53;36.61
34197;BME280;36594;45.192;5.722;2023-03-14T03:21:48;98225.59;;;24.49;36.61
34197;BME280;36594;45.192;5.722;2023-03-14T03:24:37;98228.59;;;24.55;36.62
34197;BME280;36594;45.192;5.722;2023-03-14T03:27:25;98231.91;;;24.55;36.60
34197;BME280;36594;45.192;5.722;2023-03-14T03:30:15;98231.91;;;24.55;36.61
34197;BME280;36594;45.192;5.722;2023-03-14T03:33:03;98226.97;;;24.54;36.63
34197;BME280;36594;45.192;5.722;2023-03-14T03:35:51;98225.59;;;24.54;36.60
34197;BME280;36594;45.192;5.722;2023-03-14T03:38:42;98221.48;;;24.54;36.60
34197;BME280;36594;45.192;5.722;2023-03-14T03:41:30;98218.73;;;24.52;36.68
34197;BME280;36594;45.192;5.722;2023-03-14T03:44:20;98218.19;;;24.52;36.66
34197;BME280;36594;45.192;5.722;2023-03-14T03:47:08;98215.45;;;24.52;36.61
34197;BME280;36594;45.192;5.722;2023-03-14T03:49:57;98212.16;;;24.50;36.60
34197;BME280;36594;45.192;5.722;2023-03-14T03:52:46;98206.92;;;24.51;36.67
34197;BME280;36594;45.192;5.722;2023-03-14T03:55:34;98209.95;;;24.50;36.65
34197;BME280;36594;45.192;5.722;2023-03-14T03:58:23;98205.83;;;24.52;36.69
34197;BME280;36594;45.192;5.722;2023-03-14T04:01:12;98200.34;;;24.52;36.64
34197;BME280;36594;45.192;5.722;2023-03-14T04:04:00;98198.43;;;24.50;36.64
34197;BME280;36594;45.192;5.722;2023-03-14T04:06:49;98197.86;;;24.51;36.66
34197;BME280;36594;45.192;5.722;2023-03-14T04:09:38;98196.77;;;24.52;36.70
34197;BME280;36594;45.192;5.722;2023-03-14T04:12:40;98186.62;;;24.52;36.69
34197;BME280;36594;45.192;5.722;2023-03-14T04:15:30;98179.47;;;24.51;36.66
34197;BME280;36594;45.192;5.722;2023-03-14T04:18:21;98184.70;;;24.50;36.72
34197;BME280;36594;45.192;5.722;2023-03-14T04:21:12;98194.85;;;24.52;36.69
34197;BME280;36594;45.192;5.722;2023-03-14T04:24:03;98191.83;;;24.51;36.70
34197;BME280;36594;45.192;5.722;2023-03-14T04:26:53;98170.41;;;24.51;36.70
34197;BME280;36594;45.192;5.722;2023-03-14T04:29:42;98167.40;;;24.52;36.68
34197;BME280;36594;45.192;5.722;2023-03-14T04:32:32;98161.08;;;24.54;36.67
34197;BME280;36594;45.192;5.722;2023-03-14T04:35:21;98157.80;;;24.52;36.67
34197;BME280;36594;45.192;5.722;2023-03-14T04:38:12;98144.61;;;24.49;36.65
34197;BME280;36594;45.192;5.722;2023-03-14T04:41:02;98140.48;;;24.52;36.67
34197;BME280;36594;45.192;5.722;2023-03-14T04:43:52;98145.98;;;24.49;36.69
34197;BME280;36594;45.192;5.722;2023-03-14T04:46:41;98138.58;;;24.50;36.68
34197;BME280;36594;45.192;5.722;2023-03-14T04:49:32;98135.00;;;24.49;36.70
34197;BME280;36594;45.192;5.722;2023-03-14T04:52:21;98127.05;;;24.50;36.66
34197;BME280;36594;45.192;5.722;2023-03-14T04:55:09;98124.31;;;24.50;36.69
34197;BME280;36594;45.192;5.722;2023-03-14T04:57:59;98120.74;;;24.47;36.70
34197;BME280;36594;45.192;5.722;2023-03-14T05:00:47;98108.64;;;24.48;36.71
34197;BME280;36594;45.192;5.722;2023-03-14T05:03:40;98109.47;;;24.49;36.73
34197;BME280;36594;45.192;5.722;2023-03-14T05:06:46;98115.79;;;24.49;36.75
34197;BME280;36594;45.192;5.722;2023-03-14T05:09:51;98110.02;;;24.46;36.80
34197;BME280;36594;45.192;5.722;2023-03-14T05:12:47;98103.99;;;24.44;36.72
34197;BME280;36594;45.192;5.722;2023-03-14T05:16:01;98104.53;;;24.46;36.74
34197;BME280;36594;45.192;5.722;2023-03-14T05:18:51;98103.73;;;24.43;36.80
34197;BME280;36594;45.192;5.722;2023-03-14T05:21:57;98098.80;;;24.42;36.76
34197;BME280;36594;45.192;5.722;2023-03-14T05:24:48;98101.83;;;24.41;36.85
34197;BME280;36594;45.192;5.722;2023-03-14T05:27:40;98094.13;;;24.43;36.80
34197;BME280;36594;45.192;5.722;2023-03-14T05:30:47;98092.77;;;24.43;36.80
34197;BME280;36594;45.192;5.722;2023-03-14T05:33:40;98098.80;;;24.42;36.77
34197;BME280;36594;45.192;5.722;2023-03-14T05:36:30;98107.86;;;24.43;36.82
34197;BME280;36594;45.192;5.722;2023-03-14T05:39:23;98106.48;;;24.45;36.75
34197;BME280;36594;45.192;5.722;2023-03-14T05:42:25;98098.79;;;24.45;36.74
34197;BME280;36594;45.192;5.722;2023-03-14T05:45:34;98097.70;;;24.43;36.74
34197;BME280;36594;45.192;5.722;2023-03-14T05:48:41;98105.95;;;24.41;36.83
34197;BME280;36594;45.192;5.722;2023-03-14T05:51:33;98110.61;;;24.40;36.77
34197;BME280;36594;45.192;5.722;2023-03-14T05:54:23;98112.52;;;24.42;36.82
34197;BME280;36594;45.192;5.722;2023-03-14T05:57:19;98118.56;;;24.39;36.75
34197;BME280;36594;45.192;5.722;2023-03-14T06:00:26;98121.59;;;24.40;36.83
34197;BME280;36594;45.192;5.722;2023-03-14T06:03:16;98116.09;;;24.40;36.84
34197;BME280;36594;45.192;5.722;2023-03-14T06:06:06;98113.08;;;24.37;36.79
34197;BME280;36594;45.192;5.722;2023-03-14T06:08:55;98119.10;;;24.39;36.89
34197;BME280;36594;45.192;5.722;2023-03-14T06:11:43;98117.73;;;24.41;36.82
34197;BME280;36594;45.192;5.722;2023-03-14T06:14:33;98122.41;;;24.43;36.77
34197;BME280;36594;45.192;5.722;2023-03-14T06:17:22;98128.44;;;24.45;36.70
34197;BME280;36594;45.192;5.722;2023-03-14T06:20:13;98130.61;;;24.46;36.74
34197;BME280;36594;45.192;5.722;2023-03-14T06:23:02;98132.27;;;24.44;36.75
34197;BME280;36594;45.192;5.722;2023-03-14T06:25:52;98132.56;;;24.40;36.44
34197;BME280;36594;45.192;5.722;2023-03-14T06:28:42;98135.02;;;24.42;36.58
34197;BME280;36594;45.192;5.722;2023-03-14T06:31:31;98133.64;;;24.44;36.51
34197;BME280;36594;45.192;5.722;2023-03-14T06:34:21;98139.13;;;24.44;36.45
34197;BME280;36594;45.192;5.722;2023-03-14T06:37:10;98139.42;;;24.45;36.39
34197;BME280;36594;45.192;5.722;2023-03-14T06:39:58;98132.81;;;24.44;35.97
34197;BME280;36594;45.192;5.722;2023-03-14T06:42:48;98139.69;;;24.39;35.11
34197;BME280;36594;45.192;5.722;2023-03-14T06:45:37;98143.31;;;24.29;35.54
34197;BME280;36594;45.192;5.722;2023-03-14T06:48:26;98143.33;;;24.14;36.07
34197;BME280;36594;45.192;5.722;2023-03-14T06:51:14;98138.10;;;24.02;36.44
34197;BME280;36594;45.192;5.722;2023-03-14T06:54:03;98146.62;;;23.96;36.70
34197;BME280;36594;45.192;5.722;2023-03-14T06:56:52;98133.45;;;23.93;36.84
34197;BME280;36594;45.192;5.722;2023-03-14T06:59:41;98136.73;;;23.90;36.99
34197;BME280;36594;45.192;5.722;2023-03-14T07:02:30;98143.88;;;23.88;37.20
34197;BME280;36594;45.192;5.722;2023-03-14T07:05:20;98151.27;;;23.88;37.35
34197;BME280;36594;45.192;5.722;2023-03-14T07:08:09;98153.77;;;23.87;37.43
34197;BME280;36594;45.192;5.722;2023-03-14T07:10:57;98160.07;;;23.85;37.48
34197;BME280;36594;45.192;5.722;2023-03-14T07:13:46;98161.70;;;23.83;37.56
34197;BME280;36594;45.192;5.722;2023-03-14T07:16:35;98166.64;;;23.81;37.70
34197;BME280;36594;45.192;5.722;2023-03-14T07:19:23;98167.75;;;23.80;37.93
34197;BME280;36594;45.192;5.722;2023-03-14T07:22:12;98169.66;;;23.80;38.13
34197;BME280;36594;45.192;5.722;2023-03-14T07:25:00;98172.41;;;23.82;38.33
34197;BME280;36594;45.192;5.722;2023-03-14T07:27:50;98182.01;;;23.82;38.51
34197;BME280;36594;45.192;5.722;2023-03-14T07:30:38;98187.75;;;23.83;38.61
34197;BME280;36594;45.192;5.722;2023-03-14T07:33:28;98189.95;;;23.84;38.74
34197;BME280;36594;45.192;5.722;2023-03-14T07:36:17;98199.84;;;23.85;38.88
34197;BME280;36594;45.192;5.722;2023-03-14T07:39:07;98195.15;;;23.85;39.01
34197;BME280;36594;45.192;5.722;2023-03-14T07:42:06;98196.81;;;23.86;39.13
34197;BME280;36594;45.192;5.722;2023-03-14T07:45:09;98197.89;;;23.85;39.27
34197;BME280;36594;45.192;5.722;2023-03-14T07:47:58;98215.46;;;23.84;39.41
34197;BME280;36594;45.192;5.722;2023-03-14T07:50:50;98217.39;;;23.99;39.30
34197;BME280;36594;45.192;5.722;2023-03-14T07:53:39;98223.44;;;24.14;39.02
34197;BME280;36594;45.192;5.722;2023-03-14T07:56:27;98228.64;;;24.23;38.72
34197;BME280;36594;45.192;5.722;2023-03-14T07:59:15;98238.24;;;24.28;38.47
34197;BME280;36594;45.192;5.722;2023-03-14T08:02:04;98235.79;;;24.31;38.38
34197;BME280;36594;45.192;5.722;2023-03-14T08:04:53;98234.67;;;24.32;38.24
34197;BME280;36594;45.192;5.722;2023-03-14T08:07:42;98244.27;;;24.35;38.23
34197;BME280;36594;45.192;5.722;2023-03-14T08:10:31;98244.81;;;24.37;38.25
34197;BME280;36594;45.192;5.722;2023-03-14T08:13:19;98248.14;;;24.34;38.29
34197;BME280;36594;45.192;5.722;2023-03-14T08:16:09;98260.48;;;24.34;38.31
34197;BME280;36594;45.192;5.722;2023-03-14T08:18:58;98265.98;;;24.36;38.27
34197;BME280;36594;45.192;5.722;2023-03-14T08:21:46;98273.38;;;24.36;38.17
34197;BME280;36594;45.192;5.722;2023-03-14T08:24:35;98272.27;;;24.37;38.14
34197;BME280;36594;45.192;5.722;2023-03-14T08:27:23;98276.13;;;24.36;38.08
34197;BME280;36594;45.192;5.722;2023-03-14T08:30:13;98282.45;;;24.36;38.12
34197;BME280;36594;45.192;5.722;2023-03-14T08:33:02;98287.64;;;24.35;38.16
34197;BME280;36594;45.192;5.722;2023-03-14T08:35:52;98291.77;;;24.35;38.14
34197;BME280;36594;45.192;5.722;2023-03-14T08:38:41;98293.67;;;24.35;38.15
34197;BME280;36594;45.192;5.722;2023-03-14T08:41:30;98308.23;;;24.35;38.16
34197;BME280;36594;45.192;5.722;2023-03-14T08:44:18;98317.30;;;24.36;38.21
34197;BME280;36594;45.192;5.722;2023-03-14T08:47:07;98315.38;;;24.36;38.21
34197;BME280;36594;45.192;5.722;2023-03-14T08:49:55;98315.92;;;24.36;38.24
34197;BME280;36594;45.192;5.722;2023-03-14T08:52:44;98319.50;;;24.34;38.23
34197;BME280;36594;45.192;5.722;2023-03-14T08:55:32;98327.73;;;24.36;38.23
34197;BME280;36594;45.192;5.722;2023-03-14T08:58:20;98329.36;;;24.35;38.21
34197;BME280;36594;45.192;5.722;2023-03-14T09:01:11;98337.05;;;24.33;38.24
34197;BME280;36594;45.192;5.722;2023-03-14T09:03:59;98344.20;;;24.34;38.29
34197;BME280;36594;45.192;5.722;2023-03-14T09:06:48;98349.40;;;24.33;38.25
34197;BME280;36594;45.192;5.722;2023-03-14T09:09:37;98356.26;;;24.33;38.23
34197;BME280;36594;45.192;5.722;2023-03-14T09:12:25;98363.41;;;24.31;38.30
34197;BME280;36594;45.192;5.722;2023-03-14T09:15:14;98364.48;;;24.30;38.29
34197;BME280;36594;45.192;5.722;2023-03-14T09:18:02;98368.06;;;24.31;38.24
34197;BME280;36594;45.192;5.722;2023-03-14T09:20:50;98374.09;;;24.30;38.22
34197;BME280;36594;45.192;5.722;2023-03-14T09:23:39;98379.86;;;24.26;38.27
34197;BME280;36594;45.192;5.722;2023-03-14T09:26:28;98392.47;;;24.27;38.23
34197;BME280;36594;45.192;5.722;2023-03-14T09:29:16;98403.45;;;24.27;38.27
34197;BME280;36594;45.192;5.722;2023-03-14T09:32:05;98423.23;;;24.27;38.24
34197;BME280;36594;45.192;5.722;2023-03-14T09:34:53;98437.20;;;24.28;38.19
34197;BME280;36594;45.192;5.722;2023-03-14T09:37:41;98447.09;;;24.26;38.29
34197;BME280;36594;45.192;5.722;2023-03-14T09:40:37;98453.66;;;24.25;38.22
34197;BME280;36594;45.192;5.722;2023-03-14T09:43:28;98462.19;;;24.26;38.25
34197;BME280;36594;45.192;5.722;2023-03-14T09:46:17;98469.33;;;24.25;38.28
34197;BME280;36594;45.192;5.722;2023-03-14T09:49:20;98472.33;;;24.23;38.36
34197;BME280;36594;45.192;5.722;2023-03-14T09:52:18;98480.56;;;24.23;38.38
34197;BME280;36594;45.192;5.722;2023-03-14T09:55:11;98481.92;;;24.21;38.32
34197;BME280;36594;45.192;5.722;2023-03-14T09:58:02;98495.62;;;24.18;38.39
34197;BME280;36594;45.192;5.722;2023-03-14T10:00:53;98501.41;;;24.19;38.40
34197;BME280;36594;45.192;5.722;2023-03-14T10:03:44;98511.27;;;24.20;38.31
34197;BME280;36594;45.192;5.722;2023-03-14T10:06:33;98521.98;;;24.19;38.36
34197;BME280;36594;45.192;5.722;2023-03-14T10:09:23;98526.10;;;24.19;38.31
34197;BME280;36594;45.192;5.722;2023-03-14T10:12:17;98532.13;;;24.19;38.32
34197;BME280;36594;45.192;5.722;2023-03-14T10:15:12;98534.88;;;24.19;38.31
34197;BME280;36594;45.192;5.722;2023-03-14T10:18:03;98537.08;;;24.19;38.41
34197;BME280;36594;45.192;5.722;2023-03-14T10:21:17;98542.27;;;24.16;38.45
34197;BME280;36594;45.192;5.722;2023-03-14T10:24:19;98550.25;;;24.17;38.40
34197;BME280;36594;45.192;5.722;2023-03-14T10:27:28;98545.84;;;24.16;38.43
34197;BME280;36594;45.192;5.722;2023-03-14T10:30:26;98559.00;;;24.14;38.46
34197;BME280;36594;45.192;5.722;2023-03-14T10:33:11;98563.64;;;24.11;38.57
34197;BME280;36594;45.192;5.722;2023-03-14T10:36:19;98583.42;;;24.11;38.56
34197;BME280;36594;45.192;5.722;2023-03-14T10:42:26;98593.27;;;24.09;38.62
34197;BME280;36594;45.192;5.722;2023-03-14T10:45:36;98602.31;;;24.07;38.61
34197;BME280;36594;45.192;5.722;2023-03-14T10:48:25;98604.27;;;24.12;38.60
34197;BME280;36594;45.192;5.722;2023-03-14T10:51:28;98604.25;;;24.09;38.67
34197;BME280;36594;45.192;5.722;2023-03-14T10:54:23;98624.80;;;24.07;38.64
34197;BME280;36594;45.192;5.722;2023-03-14T10:57:11;98618.78;;;24.07;38.63
34197;BME280;36594;45.192;5.722;2023-03-14T11:00:00;98620.98;;;24.08;38.59
34197;BME280;36594;45.192;5.722;2023-03-14T11:05:59;98624.58;;;24.11;38.50
34197;BME280;36594;45.192;5.722;2023-03-14T11:09:17;98628.94;;;24.09;38.54
34197;BME280;36594;45.192;5.722;2023-03-14T11:11:49;98627.33;;;24.11;38.56
34197;BME280;36594;45.192;5.722;2023-03-14T11:14:41;98631.98;;;24.10;38.61
34197;BME280;36594;45.192;5.722;2023-03-14T11:17:46;98638.56;;;24.12;38.61
34197;BME280;36594;45.192;5.722;2023-03-14T11:28:09;98638.82;;;24.08;38.53
34197;BME280;36594;45.192;5.722;2023-03-14T11:36:10;98656.11;;;24.08;38.51
34197;BME280;36594;45.192;5.722;2023-03-14T11:38:59;98656.93;;;24.06;38.51
34197;BME280;36594;45.192;5.722;2023-03-14T11:41:51;98649.45;;;24.04;38.47
34197;BME280;36594;45.192;5.722;2023-03-14T11:44:39;98656.11;;;24.08;38.39
34197;BME280;36594;45.192;5.722;2023-03-14T11:47:34;98654.45;;;24.07;38.27
34197;BME280;36594;45.192;5.722;2023-03-14T11:50:28;98655.84;;;24.10;38.23
34197;BME280;36594;45.192;5.722;2023-03-14T11:56:33;98642.14;;;24.12;38.05
34197;BME280;36594;45.192;5.722;2023-03-14T12:02:56;98642.67;;;24.12;37.91
34197;BME280;36594;45.192;5.722;2023-03-14T12:08:54;98649.83;;;24.13;37.88
34197;BME280;36594;45.192;5.722;2023-03-14T12:12:01;98654.77;;;24.11;37.83
34197;BME280;36594;45.192;5.722;2023-03-14T12:14:52;98662.16;;;24.10;37.89
34197;BME280;36594;45.192;5.722;2023-03-14T12:17:41;98657.23;;;24.12;37.72
34197;BME280;36594;45.192;5.722;2023-03-14T12:20:31;98652.02;;;24.11;37.80
34197;BME280;36594;45.192;5.722;2023-03-14T12:23:24;98655.58;;;24.14;37.77
34197;BME280;36594;45.192;5.722;2023-03-14T12:26:16;98680.03;;;24.15;37.73
34197;BME280;36594;45.192;5.722;2023-03-14T12:32:08;98681.42;;;24.18;37.66
34197;BME280;36594;45.192;5.722;2023-03-14T12:34:56;98682.80;;;24.18;37.70
34197;BME280;36594;45.192;5.722;2023-03-14T12:37:48;98674.55;;;24.15;37.64
34197;BME280;36594;45.192;5.722;2023-03-14T12:40:58;98661.36;;;24.15;37.67
34197;BME280;36594;45.192;5.722;2023-03-14T12:43:47;98657.80;;;24.17;37.61
34197;BME280;36594;45.192;5.722;2023-03-14T12:46:35;98664.38;;;24.13;37.59
34197;BME280;36594;45.192;5.722;2023-03-14T12:49:35;98667.12;;;24.16;37.61
34197;BME280;36594;45.192;5.722;2023-03-14T12:58:39;98655.60;;;24.16;37.55
34197;BME280;36594;45.192;5.722;2023-03-14T13:01:28;98641.60;;;24.13;37.57
34197;BME280;36594;45.192;5.722;2023-03-14T13:04:17;98656.69;;;24.13;37.57
34197;BME280;36594;45.192;5.722;2023-03-14T13:07:13;98661.34;;;24.12;37.66
34197;BME280;36594;45.192;5.722;2023-03-14T13:10:05;98651.45;;;24.11;37.63
34197;BME280;36594;45.192;5.722;2023-03-14T13:16:09;98627.33;;;24.11;37.61
34197;BME280;36594;45.192;5.722;2023-03-14T13:19:03;98627.84;;;24.08;37.68
34197;BME280;36594;45.192;5.722;2023-03-14T13:22:02;98633.34;;;24.10;37.69
34197;BME280;36594;45.192;5.722;2023-03-14T13:24:50;98633.61;;;24.11;37.72
34197;BME280;36594;45.192;5.722;2023-03-14T13:27:39;98641.28;;;24.09;37.69
34197;BME280;36594;45.192;5.722;2023-03-14T13:30:38;98643.22;;;24.11;37.68
34197;BME280;36594;45.192;5.722;2023-03-14T13:33:26;98645.42;;;24.12;37.61
34197;BME280;36594;45.192;5.722;2023-03-14T13:36:16;98644.61;;;24.14;37.58
34197;BME280;36594;45.192;5.722;2023-03-14T13:39:14;98658.63;;;24.15;37.54
34197;BME280;36594;45.192;5.722;2023-03-14T13:42:03;98669.04;;;24.13;37.60
34197;BME280;36594;45.192;5.722;2023-03-14T13:44:53;98677.53;;;24.14;37.53
34197;BME280;36594;45.192;5.722;2023-03-14T13:47:42;98673.69;;;24.12;37.53
34197;BME280;36594;45.192;5.722;2023-03-14T13:50:33;98665.16;;;24.11;37.53
34197;BME280;36594;45.192;5.722;2023-03-14T13:53:22;98678.10;;;24.13;37.53
34197;BME280;36594;45.192;5.722;2023-03-14T13:56:12;98680.55;;;24.12;37.53
34197;BME280;36594;45.192;5.722;2023-03-14T13:59:01;98686.34;;;24.13;37.50
34197;BME280;36594;45.192;5.722;2023-03-14T14:01:50;98686.31;;;24.11;37.53
34197;BME280;36594;45.192;5.722;2023-03-14T14:04:39;98680.58;;;24.15;37.56
34197;BME280;36594;45.192;5.722;2023-03-14T14:07:28;98676.99;;;24.14;37.59
34197;BME280;36594;45.192;5.722;2023-03-14T14:10:17;98686.59;;;24.14;37.59
34197;BME280;36594;45.192;5.722;2023-03-14T14:13:08;98692.06;;;24.12;37.58
34197;BME280;36594;45.192;5.722;2023-03-14T14:15:59;98690.43;;;24.11;37.60
34197;BME280;36594;45.192;5.722;2023-03-14T14:18:48;98681.63;;;24.11;37.61
34197;BME280;36594;45.192;5.722;2023-03-14T14:21:37;98695.08;;;24.10;37.63
34197;BME280;36594;45.192;5.722;2023-03-14T14:24:30;98691.23;;;24.11;37.63
34197;BME280;36594;45.192;5.722;2023-03-14T14:27:27;98695.08;;;24.10;37.61
34197;BME280;36594;45.192;5.722;2023-03-14T14:33:19;98709.05;;;24.09;37.63
34197;BME280;36594;45.192;5.722;2023-03-14T14:36:41;98711.23;;;24.07;37.69
34197;BME280;36594;45.192;5.722;2023-03-14T14:39:31;98710.70;;;24.07;37.68
34197;BME280;36594;45.192;5.722;2023-03-14T14:42:24;98714.19;;;24.02;37.74
34197;BME280;36594;45.192;5.722;2023-03-14T14:45:14;98702.95;;;24.04;37.71
34197;BME280;36594;45.192;5.722;2023-03-14T14:48:09;98705.98;;;24.05;37.68
34197;BME280;36594;45.192;5.722;2023-03-14T14:51:00;98702.95;;;24.04;37.66
34197;BME280;36594;45.192;5.722;2023-03-14T14:53:48;98698.03;;;24.03;37.65
34197;BME280;36594;45.192;5.722;2023-03-14T14:56:38;98687.32;;;24.04;37.67
34197;BME280;36594;45.192;5.722;2023-03-14T14:59:27;98688.16;;;24.05;37.64
34197;BME280;36594;45.192;5.722;2023-03-14T15:02:26;98696.14;;;24.07;37.60
34197;BME280;36594;45.192;5.722;2023-03-14T15:05:15;98695.61;;;24.07;37.59
34197;BME280;36594;45.192;5.722;2023-03-14T15:08:10;98701.33;;;24.05;37.59
34197;BME280;36594;45.192;5.722;2023-03-14T15:10:56;98714.81;;;24.07;37.61
34197;BME280;36594;45.192;5.722;2023-03-14T15:13:44;98741.98;;;24.06;37.59
34197;BME280;36594;45.192;5.722;2023-03-14T15:16:33;98757.82;;;24.04;37.62
34197;BME280;36594;45.192;5.722;2023-03-14T15:19:24;98763.36;;;24.07;37.58
34197;BME280;36594;45.192;5.722;2023-03-14T15:22:13;98775.70;;;24.07;37.59
34197;BME280;36594;45.192;5.722;2023-03-14T15:25:02;98787.76;;;24.05;37.61
34197;BME280;36594;45.192;5.722;2023-03-14T15:27:50;98755.88;;;24.02;37.57
34197;BME280;36594;45.192;5.722;2023-03-14T15:30:40;98755.08;;;24.04;37.59
34197;BME280;36594;45.192;5.722;2023-03-14T15:33:28;98760.86;;;24.05;37.53
34197;BME280;36594;45.192;5.722;2023-03-14T15:36:25;98760.02;;;24.04;37.53
34197;BME280;36594;45.192;5.722;2023-03-14T15:39:14;98758.11;;;24.05;37.54
34197;BME280;36594;45.192;5.722;2023-03-14T15:42:02;98760.08;;;24.07;37.53
34197;BME280;36594;45.192;5.722;2023-03-14T15:44:51;98762.28;;;24.08;37.52
34197;BME280;36594;45.192;5.722;2023-03-14T15:47:39;98762.55;;;24.09;37.50
34197;BME280;36594;45.192;5.722;2023-03-14T15:50:27;98763.68;;;24.10;37.48
34197;BME280;36594;45.192;5.722;2023-03-14T15:53:16;98762.02;;;24.09;37.46
34197;BME280;36594;45.192;5.722;2023-03-14T15:56:06;98763.12;;;24.08;37.47